createdAt,value
2019-02-07T10:30:01.798Z,99045.00
2019-02-07T10:32:58.159Z,99047.88
2019-02-07T10:35:49.731Z,99042.75
2019-02-07T10:38:41.141Z,99043.63
2019-02-07T10:41:31.859Z,99066.87
2019-02-07T10:44:27.881Z,99062.43
2019-02-07T10:47:18.511Z,99058.83
2019-02-07T10:50:19.325Z,99045.38
2019-02-07T10:53:17.774Z,99038.49
2019-02-07T10:56:13.351Z,99050.50
2019-02-07T10:59:08.621Z,99048.39
2019-02-07T11:02:01.541Z,99051.97
2019-02-07T11:04:53.094Z,99043.50
2019-02-07T11:07:44.178Z,99039.32
2019-02-07T11:10:48.135Z,99038.87
2019-02-07T11:13:52.866Z,99054.93
2019-02-07T11:16:45.099Z,99046.80
2019-02-07T11:19:38.403Z,99027.19
2019-02-07T11:22:34.515Z,99050.84
2019-02-07T11:25:40.318Z,99054.80
2019-02-07T11:28:41.717Z,99046.16
2019-02-07T11:31:32.921Z,99054.27
2019-02-07T11:34:25.260Z,99042.94
2019-02-07T11:37:15.559Z,99043.81
2019-02-07T11:39:58.266Z,99039.41
2019-02-07T11:42:53.702Z,99031.87
2019-02-07T11:45:41.511Z,99015.88
2019-02-07T11:48:34.473Z,99018.30
2019-02-07T11:51:36.212Z,99014.58
2019-02-07T11:54:37.291Z,99018.27
2019-02-07T11:57:20.757Z,99009.56
2019-02-07T12:00:19.619Z,99022.77
2019-02-07T12:03:12.657Z,99020.05
2019-02-07T12:06:03.893Z,99023.31
2019-02-07T12:08:54.501Z,99022.56
2019-02-07T12:11:51.945Z,99032.54
2019-02-07T12:14:53.492Z,99031.49
2019-02-07T12:17:44.919Z,99027.10
2019-02-07T12:21:18.033Z,99029.91
2019-02-07T12:24:11.758Z,99030.88
2019-02-07T12:27:03.375Z,99022.04
2019-02-07T12:29:55.975Z,99031.55
2019-02-07T12:32:43.689Z,99035.61
2019-02-07T12:35:56.222Z,99034.13
2019-02-07T12:39:05.674Z,99035.06
2019-02-07T12:42:06.629Z,99045.72
2019-02-07T12:44:58.237Z,99029.57
2019-02-07T12:48:06.131Z,99024.45
2019-02-07T12:50:49.982Z,99026.85
2019-02-07T12:53:42.262Z,99020.24
2019-02-07T12:56:36.519Z,99029.09
2019-02-07T12:59:22.953Z,99021.78
2019-02-07T13:02:14.375Z,99019.56
2019-02-07T13:05:12.102Z,99020.13
2019-02-07T13:08:02.690Z,99013.17
2019-02-07T13:11:07.705Z,99004.88
2019-02-07T13:13:51.719Z,99007.17
2019-02-07T13:16:51.232Z,99026.70
2019-02-07T13:19:42.921Z,99026.46
2019-02-07T13:22:44.340Z,99003.30
2019-02-07T13:25:34.794Z,99005.53
2019-02-07T13:28:21.605Z,99006.44
2019-02-07T13:31:12.322Z,99012.27
2019-02-07T13:34:14.483Z,99007.12
2019-02-07T13:37:25.627Z,99006.89
2019-02-07T13:40:09.564Z,99015.92
2019-02-07T13:43:08.129Z,99024.11
2019-02-07T13:45:59.572Z,99030.59
2019-02-07T13:48:51.357Z,99031.27
2019-02-07T13:51:52.668Z,99029.55
2019-02-07T13:54:44.703Z,99035.38
2019-02-07T13:57:37.743Z,99033.91
2019-02-07T14:00:30.115Z,99031.92
2019-02-07T14:03:37.669Z,99033.37
2019-02-07T14:06:34.670Z,99040.03
2019-02-07T14:09:42.070Z,99048.80
2019-02-07T14:12:46.375Z,99043.84
2019-02-07T14:15:32.039Z,99055.98
2019-02-07T14:18:23.570Z,99052.97
2019-02-07T14:21:15.095Z,99052.97
2019-02-07T14:24:06.644Z,99045.78
2019-02-07T14:26:58.110Z,99058.52
2019-02-07T14:29:46.716Z,99065.05
2019-02-07T14:32:57.235Z,99055.63
2019-02-07T14:35:52.270Z,99058.21
2019-02-07T14:38:47.866Z,99052.44
2019-02-07T14:41:46.444Z,99060.48
2019-02-07T14:44:37.891Z,99060.89
2019-02-07T14:47:11.328Z,99046.36
2019-02-07T14:49:44.483Z,99048.56
2019-02-07T14:52:21.842Z,99063.06
2019-02-07T14:54:58.949Z,99061.20
2019-02-07T14:57:32.904Z,99061.99
2019-02-07T15:00:09.918Z,99057.39
2019-02-07T15:02:43.574Z,99066.76
2019-02-07T15:05:17.896Z,99060.67
2019-02-07T15:07:51.873Z,99069.45
2019-02-07T15:10:25.765Z,99056.70
2019-02-07T15:13:01.362Z,99056.53
2019-02-07T15:15:35.129Z,99070.37
2019-02-07T15:18:08.633Z,99067.72
2019-02-07T15:20:42.625Z,99073.48
2019-02-07T15:23:34.873Z,99061.92
2019-02-07T15:26:09.015Z,99066.94
2019-02-07T15:28:41.974Z,99073.30
2019-02-07T15:31:15.900Z,99073.45
2019-02-07T15:33:48.773Z,99056.06
2019-02-07T15:36:22.148Z,99058.80
2019-02-07T15:38:55.362Z,99062.58
2019-02-07T15:41:31.612Z,99059.94
2019-02-07T15:44:05.796Z,99065.13
2019-02-07T15:46:39.457Z,99064.72
2019-02-07T15:49:15.934Z,99067.39
2019-02-07T15:51:49.517Z,99058.93
2019-02-07T15:54:23.817Z,99052.31
2019-02-07T15:56:58.441Z,99052.05
2019-02-07T15:59:47.907Z,99066.50
2019-02-07T16:02:28.279Z,99063.25
2019-02-07T16:05:07.080Z,99057.42
2019-02-07T16:07:40.175Z,99056.33
2019-02-07T16:10:16.475Z,99055.31
2019-02-07T16:12:49.455Z,99050.14
2019-02-07T16:15:23.259Z,99062.34
2019-02-07T16:17:57.980Z,99065.59
2019-02-07T16:20:31.689Z,99058.28
2019-02-07T16:23:05.167Z,99054.39
2019-02-07T16:25:37.981Z,99057.60
2019-02-07T16:28:11.048Z,99063.27
2019-02-07T16:30:50.348Z,99066.08
2019-02-07T16:33:24.640Z,99066.79
2019-02-07T16:36:00.639Z,99069.20
2019-02-07T16:38:34.284Z,99077.31
2019-02-07T16:41:10.544Z,99071.71
2019-02-07T16:43:42.116Z,99075.81
2019-02-07T16:46:15.957Z,99081.50
2019-02-07T16:48:48.605Z,99085.31
2019-02-07T16:51:21.658Z,99088.16
2019-02-07T16:53:55.316Z,99077.28
2019-02-07T16:56:28.625Z,99087.44
2019-02-07T16:59:01.866Z,99093.63
2019-02-07T17:01:35.459Z,99084.97
2019-02-07T17:04:08.359Z,99094.27
2019-02-07T17:06:44.075Z,99091.41
2019-02-07T17:09:47.587Z,99099.80
2019-02-07T17:12:24.520Z,99104.05
2019-02-07T17:14:59.110Z,99103.60
2019-02-07T17:17:56.134Z,99094.23
2019-02-07T17:20:36.022Z,99104.91
2019-02-07T17:23:15.388Z,99119.07
2019-02-07T17:25:56.394Z,99125.25
2019-02-07T17:28:34.593Z,99130.48
2019-02-07T17:31:11.235Z,99128.45
2019-02-07T17:33:49.721Z,99129.33
2019-02-07T17:36:30.800Z,99132.92
2019-02-07T17:39:13.306Z,99138.95
2019-02-07T17:41:54.348Z,99137.41
2019-02-07T17:44:32.877Z,99149.50
2019-02-07T17:47:16.298Z,99140.31
2019-02-07T17:49:55.904Z,99143.86
2019-02-07T17:52:33.693Z,99144.38
2019-02-07T17:55:17.483Z,99143.91
2019-02-07T17:57:58.518Z,99139.33
2019-02-07T18:01:05.679Z,99149.91
2019-02-07T18:03:46.060Z,99138.48
2019-02-07T18:06:25.785Z,99146.47
2019-02-07T18:09:07.336Z,99155.37
2019-02-07T18:11:46.831Z,99154.16
2019-02-07T18:14:27.764Z,99163.12
2019-02-07T18:17:08.329Z,99172.65
2019-02-07T18:19:49.718Z,99166.70
2019-02-07T18:22:28.658Z,99153.17
2019-02-07T18:25:05.127Z,99149.53
2019-02-07T18:27:44.795Z,99148.44
2019-02-07T18:33:30.613Z,99163.08
2019-02-07T18:36:11.148Z,99163.75
2019-02-07T18:38:47.797Z,99182.27
2019-02-07T18:41:37.779Z,99184.86
2019-02-07T18:44:20.819Z,99183.72
2019-02-07T18:47:01.054Z,99181.32
2019-02-07T18:49:38.234Z,99195.91
2019-02-07T18:52:18.285Z,99191.66
2019-02-07T18:54:58.202Z,99194.29
2019-02-07T18:57:41.723Z,99199.91
2019-02-07T19:00:24.178Z,99193.37
2019-02-07T19:03:00.792Z,99199.97
2019-02-07T19:05:34.815Z,99193.52
2019-02-07T19:08:12.512Z,99194.36
2019-02-07T19:10:45.628Z,99190.61
2019-02-07T19:13:22.981Z,99202.53
2019-02-07T19:16:02.603Z,99193.14
2019-02-07T19:18:37.942Z,99211.20
2019-02-07T19:21:13.220Z,99202.67
2019-02-07T19:23:51.283Z,99206.46
2019-02-07T19:26:24.825Z,99207.87
2019-02-07T19:28:58.456Z,99202.73
2019-02-07T19:31:31.993Z,99206.59
2019-02-07T19:34:04.525Z,99215.13
2019-02-07T19:36:37.589Z,99212.56
2019-02-07T19:39:11.218Z,99189.25
2019-02-07T19:41:46.759Z,99208.86
2019-02-07T19:44:20.450Z,99222.55
2019-02-07T19:46:53.941Z,99221.96
2019-02-07T19:49:28.878Z,99216.91
2019-02-07T19:52:08.118Z,99223.41
2019-02-07T19:54:43.744Z,99221.33
2019-02-07T19:57:19.612Z,99223.25
2019-02-07T19:59:52.813Z,99229.52
2019-02-07T20:02:26.406Z,99235.64
2019-02-07T20:04:59.972Z,99243.88
2019-02-07T20:07:33.172Z,99236.00
2019-02-07T20:10:08.023Z,99245.47
2019-02-07T20:12:42.483Z,99246.39
2019-02-07T20:15:19.383Z,99253.84
2019-02-07T20:17:53.604Z,99252.71
2019-02-07T20:20:28.704Z,99258.98
2019-02-07T20:23:02.674Z,99260.60
2019-02-07T20:25:37.759Z,99250.15
2019-02-07T20:28:11.838Z,99272.33
2019-02-07T20:30:44.519Z,99269.42
2019-02-07T20:33:20.779Z,99269.91
2019-02-07T20:35:55.583Z,99269.19
2019-02-07T20:38:30.304Z,99274.47
2019-02-07T20:41:03.830Z,99291.89
2019-02-07T20:43:37.763Z,99279.38
2019-02-07T20:46:11.340Z,99284.13
2019-02-07T20:48:44.994Z,99284.69
2019-02-07T20:51:18.969Z,99277.16
2019-02-07T20:53:51.777Z,99281.16
2019-02-07T20:56:25.621Z,99284.42
2019-02-07T20:58:58.778Z,99294.52
2019-02-07T21:01:33.069Z,99292.83
2019-02-07T21:04:06.587Z,99305.26
2019-02-07T21:06:39.883Z,99293.31
2019-02-07T21:09:13.959Z,99308.82
2019-02-07T21:11:51.056Z,99312.03
2019-02-07T21:14:23.798Z,99310.69
2019-02-07T21:16:57.860Z,99327.03
2019-02-07T21:19:31.365Z,99328.08
2019-02-07T21:22:04.127Z,99334.83
2019-02-07T21:24:38.144Z,99336.59
2019-02-07T21:27:11.655Z,99332.92
2019-02-07T21:29:48.193Z,99345.48
2019-02-07T21:32:20.523Z,99342.50
2019-02-07T21:34:53.488Z,99347.59
2019-02-07T21:37:32.068Z,99355.94
2019-02-07T21:40:06.575Z,99349.19
2019-02-07T21:42:40.349Z,99358.00
2019-02-07T21:45:16.466Z,99360.78
2019-02-07T21:47:49.202Z,99358.08
2019-02-07T21:50:24.697Z,99361.73
2019-02-07T21:53:00.983Z,99349.98
2019-02-07T21:55:34.854Z,99372.35
2019-02-07T21:58:08.063Z,99373.94
2019-02-07T22:00:44.931Z,99379.75
2019-02-07T22:03:20.228Z,99380.14
2019-02-07T22:05:53.831Z,99375.13
2019-02-07T22:08:27.787Z,99393.89
2019-02-07T22:11:12.546Z,99383.20
2019-02-07T22:13:46.292Z,99395.36
2019-02-07T22:16:19.862Z,99400.59
2019-02-07T22:18:52.624Z,99391.89
2019-02-07T22:21:25.273Z,99402.28
2019-02-07T22:23:58.964Z,99405.69
2019-02-07T22:26:33.042Z,99397.14
2019-02-07T22:29:07.277Z,99414.63
2019-02-07T22:31:40.333Z,99401.67
2019-02-07T22:34:13.462Z,99395.67
2019-02-07T22:36:46.158Z,99411.12
2019-02-07T22:39:18.432Z,99408.39
2019-02-07T22:41:51.093Z,99415.59
2019-02-07T22:44:24.356Z,99410.02
2019-02-07T22:46:57.889Z,99411.48
2019-02-07T22:49:31.174Z,99413.47
2019-02-07T22:52:04.890Z,99416.25
2019-02-07T22:54:38.366Z,99419.30
2019-02-07T22:57:11.850Z,99418.42
2019-02-07T22:59:46.657Z,99427.23
2019-02-07T23:02:24.391Z,99425.18
2019-02-07T23:04:58.654Z,99433.28
2019-02-07T23:07:31.614Z,99437.13
2019-02-07T23:10:06.100Z,99436.89
2019-02-07T23:12:40.389Z,99436.27
2019-02-07T23:15:12.915Z,99441.44
2019-02-07T23:17:47.437Z,99449.93
2019-02-07T23:20:25.663Z,99448.87
2019-02-07T23:23:05.727Z,99439.68
2019-02-07T23:25:39.969Z,99446.31
2019-02-07T23:28:12.561Z,99448.95
2019-02-07T23:30:46.445Z,99450.75
2019-02-07T23:33:20.743Z,99455.39
2019-02-07T23:35:54.237Z,99453.77
2019-02-07T23:38:27.827Z,99451.63
2019-02-07T23:41:02.482Z,99456.38
2019-02-07T23:43:35.926Z,99455.71
2019-02-07T23:46:11.252Z,99454.80
2019-02-07T23:48:43.960Z,99457.77
2019-02-07T23:51:17.079Z,99461.58
2019-02-07T23:53:51.605Z,99463.73
2019-02-07T23:56:24.986Z,99462.94
2019-02-07T23:58:58.662Z,99456.41
